createdAt,value
2019-03-06T00:01:11.114Z,99861.76
2019-03-06T00:03:40.807Z,99865.66
2019-03-06T00:06:16.643Z,99856.26
2019-03-06T00:08:41.612Z,99856.42
2019-03-06T00:11:11.170Z,99855.08
2019-03-06T00:13:40.845Z,99857.27
2019-03-06T00:16:10.561Z,99862.97
2019-03-06T00:18:40.265Z,99856.63
2019-03-06T00:21:09.979Z,99852.73
2019-03-06T00:23:39.622Z,99847.56
2019-03-06T00:26:09.170Z,99831.75
2019-03-06T00:28:38.740Z,99834.27
2019-03-06T00:31:08.307Z,99834.27
2019-03-06T00:33:37.864Z,99848.54
2019-03-06T00:36:11.669Z,99839.14
2019-03-06T00:38:41.255Z,99829.73
2019-03-06T00:41:19.077Z,99827.21
2019-03-06T00:43:48.639Z,99822.67
2019-03-06T00:46:18.330Z,99835.06
2019-03-06T00:48:47.972Z,99823.35
2019-03-06T00:51:17.513Z,99822.01
2019-03-06T00:53:47.195Z,99812.27
2019-03-06T00:56:16.741Z,99813.95
2019-03-06T00:58:46.511Z,99806.27
2019-03-06T01:01:16.455Z,99798.59
2019-03-06T01:03:46.052Z,99791.55
2019-03-06T01:06:15.700Z,99789.08
2019-03-06T01:08:45.449Z,99782.91
2019-03-06T01:11:15.052Z,99777.23
2019-03-06T01:13:44.736Z,99774.39
2019-03-06T01:16:14.302Z,99770.90
2019-03-06T01:18:43.945Z,99764.22
2019-03-06T01:21:13.892Z,99766.93
2019-03-06T01:23:43.532Z,99757.87
2019-03-06T01:26:13.180Z,99747.01
2019-03-06T01:28:42.820Z,99743.98
2019-03-06T01:31:12.437Z,99747.51
2019-03-06T01:34:03.635Z,99744.16
2019-03-06T01:36:50.612Z,99733.06
2019-03-06T01:39:48.303Z,99740.94
2019-03-06T01:42:39.467Z,99739.09
2019-03-06T01:45:10.999Z,99753.82
2019-03-06T01:47:40.540Z,99765.56
2019-03-06T01:50:15.234Z,99785.02
2019-03-06T01:52:44.944Z,99793.92
2019-03-06T01:55:15.855Z,99794.09
2019-03-06T01:57:45.544Z,99790.42
2019-03-06T02:00:17.663Z,99797.97
2019-03-06T02:02:47.219Z,99804.86
2019-03-06T02:05:17.450Z,99794.97
2019-03-06T02:07:47.064Z,99786.39
2019-03-06T02:10:16.758Z,99778.04
2019-03-06T02:12:46.405Z,99779.84
2019-03-06T02:15:16.839Z,99784.06
2019-03-06T02:17:46.360Z,99787.72
2019-03-06T02:20:17.071Z,99780.68
2019-03-06T02:22:46.747Z,99780.00
2019-03-06T02:25:16.337Z,99788.38
2019-03-06T02:27:46.055Z,99789.92
2019-03-06T02:30:17.930Z,99785.08
2019-03-06T02:32:47.584Z,99796.16
2019-03-06T02:35:17.236Z,99793.48
2019-03-06T02:37:46.754Z,99804.19
2019-03-06T02:40:16.351Z,99797.16
2019-03-06T02:42:45.993Z,99794.64
2019-03-06T02:45:16.526Z,99792.64
2019-03-06T02:47:46.150Z,99789.62
2019-03-06T02:50:15.801Z,99785.59
2019-03-06T02:52:45.374Z,99789.95
2019-03-06T02:55:16.558Z,99790.62
2019-03-06T02:57:52.577Z,99787.78
2019-03-06T03:00:39.849Z,99796.64
2019-03-06T03:03:31.246Z,99800.81
2019-03-06T03:06:07.773Z,99797.27
2019-03-06T03:08:37.442Z,99799.78
2019-03-06T03:11:07.060Z,99804.09
2019-03-06T03:13:36.616Z,99800.42
2019-03-06T03:16:06.263Z,99807.44
2019-03-06T03:18:35.898Z,99801.41
2019-03-06T03:21:05.621Z,99799.05
2019-03-06T03:23:35.233Z,99804.40
2019-03-06T03:26:04.811Z,99803.40
2019-03-06T03:28:34.452Z,99805.73
2019-03-06T03:31:04.181Z,99810.44
2019-03-06T03:33:33.812Z,99813.13
2019-03-06T03:36:03.425Z,99823.48
2019-03-06T03:38:33.051Z,99816.11
2019-03-06T03:41:02.624Z,99819.81
2019-03-06T03:43:32.169Z,99826.01
2019-03-06T03:46:01.770Z,99815.44
2019-03-06T03:48:31.305Z,99813.75
2019-03-06T03:51:01.004Z,99819.45
2019-03-06T03:53:30.606Z,99824.44
2019-03-06T03:56:00.135Z,99820.58
2019-03-06T03:58:29.734Z,99824.09
2019-03-06T04:00:59.295Z,99826.06
2019-03-06T04:03:28.952Z,99824.41
2019-03-06T04:05:58.450Z,99828.73
2019-03-06T04:08:28.124Z,99821.42
2019-03-06T04:10:57.861Z,99831.25
2019-03-06T04:13:27.415Z,99832.41
2019-03-06T04:15:56.951Z,99831.09
2019-03-06T04:18:26.566Z,99826.37
2019-03-06T04:20:56.269Z,99818.31
2019-03-06T04:23:25.869Z,99819.68
2019-03-06T04:25:55.406Z,99820.98
2019-03-06T04:28:27.838Z,99817.94
2019-03-06T04:30:56.301Z,99812.58
2019-03-06T04:33:25.884Z,99809.56
2019-03-06T04:35:55.619Z,99810.91
2019-03-06T04:38:25.263Z,99825.99
2019-03-06T04:40:54.898Z,99822.52
2019-03-06T04:43:24.571Z,99830.50
2019-03-06T04:45:54.127Z,99833.34
2019-03-06T04:48:23.675Z,99841.63
2019-03-06T04:50:53.304Z,99844.30
2019-03-06T04:53:22.902Z,99842.47
2019-03-06T04:55:52.453Z,99837.46
2019-03-06T04:58:22.287Z,99847.32
2019-03-06T05:00:51.828Z,99853.67
2019-03-06T05:03:21.479Z,99854.36
2019-03-06T05:05:51.140Z,99861.92
2019-03-06T05:08:20.700Z,99858.79
2019-03-06T05:10:50.428Z,99864.74
2019-03-06T05:13:20.113Z,99873.98
2019-03-06T05:15:49.702Z,99867.17
2019-03-06T05:18:41.640Z,99874.14
2019-03-06T05:21:11.225Z,99878.61
2019-03-06T05:23:40.821Z,99886.05
2019-03-06T05:26:10.401Z,99882.81
2019-03-06T05:28:39.988Z,99879.84
2019-03-06T05:31:09.941Z,99886.03
2019-03-06T05:33:39.480Z,99886.72
2019-03-06T05:36:44.298Z,99893.83
2019-03-06T05:39:14.006Z,99887.94
2019-03-06T05:41:43.519Z,99894.52
2019-03-06T05:44:13.223Z,99908.11
2019-03-06T05:46:43.699Z,99908.07
2019-03-06T05:49:13.292Z,99905.66
2019-03-06T05:51:42.973Z,99910.72
2019-03-06T05:54:12.604Z,99898.78
2019-03-06T05:56:42.218Z,99903.84
2019-03-06T05:59:11.889Z,99907.47
2019-03-06T06:01:41.506Z,99912.13
2019-03-06T06:04:11.132Z,99922.52
2019-03-06T06:06:40.696Z,99913.84
2019-03-06T06:09:10.426Z,99913.02
2019-03-06T06:11:40.088Z,99912.28
2019-03-06T06:14:09.621Z,99917.73
2019-03-06T06:16:39.274Z,99920.45
2019-03-06T06:19:08.785Z,99920.13
2019-03-06T06:22:00.199Z,99916.89
2019-03-06T06:24:31.317Z,99917.77
2019-03-06T06:27:00.932Z,99918.06
2019-03-06T06:29:30.634Z,99919.95
2019-03-06T06:32:00.552Z,99917.54
2019-03-06T06:34:30.254Z,99924.76
2019-03-06T06:36:59.895Z,99920.06
2019-03-06T06:39:29.568Z,99930.50
2019-03-06T06:41:59.117Z,99922.70
2019-03-06T06:44:28.925Z,99931.94
2019-03-06T06:46:58.460Z,99940.47
2019-03-06T06:49:28.005Z,99932.67
2019-03-06T06:52:21.223Z,99937.17
2019-03-06T06:55:46.544Z,99940.30
2019-03-06T06:58:42.947Z,99930.75
2019-03-06T07:01:42.483Z,99937.30
2019-03-06T07:04:55.451Z,99939.80
2019-03-06T07:07:56.195Z,99938.02
2019-03-06T07:10:43.389Z,99931.34
2019-03-06T07:13:35.887Z,99931.53
2019-03-06T07:16:33.260Z,99930.52
2019-03-06T07:19:15.371Z,99929.66
2019-03-06T07:21:55.495Z,99930.02
2019-03-06T07:24:42.778Z,99933.33
2019-03-06T07:27:40.640Z,99935.19
2019-03-06T07:30:28.250Z,99932.57
2019-03-06T07:33:16.711Z,99925.91
2019-03-06T07:36:12.623Z,99930.27
2019-03-06T07:38:42.353Z,99924.59
2019-03-06T07:41:33.262Z,99935.62
2019-03-06T07:44:30.176Z,99940.84
2019-03-06T07:47:09.673Z,99935.22
2019-03-06T07:49:53.022Z,99938.34
2019-03-06T07:52:44.422Z,99935.51
2019-03-06T07:55:45.319Z,99928.91
2019-03-06T07:58:51.728Z,99927.26
2019-03-06T08:01:21.559Z,99923.53
2019-03-06T08:04:03.372Z,99916.66
2019-03-06T08:06:32.926Z,99918.13
2019-03-06T08:09:02.567Z,99913.91
2019-03-06T08:11:49.893Z,99916.06
2019-03-06T08:14:37.237Z,99912.29
2019-03-06T08:17:20.612Z,99909.22
2019-03-06T08:20:11.874Z,99910.98
2019-03-06T08:23:15.379Z,99905.39
2019-03-06T08:25:48.823Z,99903.42
2019-03-06T08:28:18.382Z,99907.41
2019-03-06T08:30:51.794Z,99906.86
2019-03-06T08:33:21.342Z,99904.45
2019-03-06T08:35:51.017Z,99895.03
2019-03-06T08:38:20.665Z,99899.83
2019-03-06T08:40:50.276Z,99903.63
2019-03-06T08:43:19.874Z,99891.56
2019-03-06T08:46:17.647Z,99895.77
2019-03-06T08:48:56.252Z,99896.41
2019-03-06T08:51:44.637Z,99908.52
2019-03-06T08:54:29.920Z,99900.49
2019-03-06T08:57:06.568Z,99900.66
2019-03-06T08:59:53.346Z,99898.23
2019-03-06T09:02:35.682Z,99889.70
2019-03-06T09:05:25.006Z,99892.72
2019-03-06T09:08:28.287Z,99897.31
2019-03-06T09:11:05.320Z,99890.48
2019-03-06T09:13:52.311Z,99900.14
2019-03-06T09:16:49.775Z,99902.44
2019-03-06T09:19:41.230Z,99888.74
2019-03-06T09:22:27.636Z,99902.30
2019-03-06T09:25:12.354Z,99902.11
2019-03-06T09:27:53.335Z,99910.52
2019-03-06T09:30:27.374Z,99909.26
2019-03-06T09:33:21.595Z,99922.67
2019-03-06T09:36:13.922Z,99917.70
2019-03-06T09:38:49.834Z,99930.17
2019-03-06T09:41:56.689Z,99922.58
2019-03-06T09:44:48.127Z,99921.58
2019-03-06T09:47:39.332Z,99927.74
2019-03-06T09:50:31.365Z,99932.52
2019-03-06T09:53:18.452Z,99939.54
2019-03-06T09:56:12.942Z,99927.27
2019-03-06T09:59:00.036Z,99930.16
2019-03-06T10:02:06.769Z,99924.97
2019-03-06T10:04:49.416Z,99928.70
2019-03-06T10:07:40.581Z,99927.63
2019-03-06T10:10:45.765Z,99925.97
2019-03-06T10:13:32.311Z,99928.32
2019-03-06T10:16:23.283Z,99933.91
2019-03-06T10:19:19.107Z,99929.61
2019-03-06T10:21:48.738Z,99930.47
2019-03-06T10:24:18.342Z,99942.77
2019-03-06T10:26:47.869Z,99942.09
2019-03-06T10:29:17.533Z,99945.95
2019-03-06T10:31:47.088Z,99932.51
2019-03-06T10:34:16.748Z,99930.16
2019-03-06T10:36:46.366Z,99931.30
2019-03-06T10:39:17.145Z,99934.88
2019-03-06T10:41:46.702Z,99917.34
2019-03-06T10:44:16.525Z,99925.41
2019-03-06T10:46:46.223Z,99927.73
2019-03-06T10:49:15.796Z,99926.91
2019-03-06T10:51:45.438Z,99924.58
2019-03-06T10:54:15.099Z,99922.61
2019-03-06T10:56:44.765Z,99929.88
2019-03-06T10:59:14.471Z,99922.97
2019-03-06T11:01:44.152Z,99916.93
2019-03-06T11:04:35.676Z,99927.03
2019-03-06T11:07:05.288Z,99927.15
2019-03-06T11:09:35.123Z,99931.55
2019-03-06T11:12:04.891Z,99922.41
2019-03-06T11:14:34.637Z,99924.58
2019-03-06T11:17:04.253Z,99925.28
2019-03-06T11:19:34.083Z,99915.84
2019-03-06T11:22:03.801Z,99917.25
2019-03-06T11:24:33.348Z,99922.09
2019-03-06T11:27:02.889Z,99912.58
2019-03-06T11:29:32.555Z,99904.39
2019-03-06T11:32:02.303Z,99910.24
2019-03-06T11:34:31.921Z,99902.47
2019-03-06T11:37:01.739Z,99898.84
2019-03-06T11:39:31.272Z,99904.41
2019-03-06T11:42:00.849Z,99899.34
2019-03-06T11:44:30.488Z,99899.76
2019-03-06T11:47:00.086Z,99907.30
2019-03-06T11:49:29.768Z,99886.66
2019-03-06T11:51:59.326Z,99907.70
2019-03-06T11:54:28.881Z,99906.35
2019-03-06T11:56:58.590Z,99900.61
2019-03-06T11:59:28.187Z,99894.81
2019-03-06T12:01:57.866Z,99874.44
2019-03-06T12:04:27.508Z,99898.65
2019-03-06T12:06:57.527Z,99891.28
2019-03-06T12:09:31.248Z,99902.07
2019-03-06T12:12:01.054Z,99898.52
2019-03-06T12:14:30.698Z,99891.40
2019-03-06T12:17:00.301Z,99898.36
2019-03-06T12:19:29.917Z,99886.23
2019-03-06T12:21:59.573Z,99885.91
2019-03-06T12:24:32.125Z,99884.39
2019-03-06T12:27:01.803Z,99880.78
2019-03-06T12:29:31.361Z,99878.47
2019-03-06T12:32:01.003Z,99880.47
2019-03-06T12:34:30.718Z,99877.45
2019-03-06T12:37:00.433Z,99886.75
2019-03-06T12:39:30.062Z,99881.52
2019-03-06T12:41:59.613Z,99887.61
2019-03-06T12:44:29.268Z,99894.65
2019-03-06T12:46:59.868Z,99890.99
2019-03-06T12:49:30.217Z,99902.75
2019-03-06T12:51:59.912Z,99902.52
2019-03-06T12:54:29.641Z,99898.78
2019-03-06T12:56:59.244Z,99893.44
2019-03-06T12:59:31.116Z,99887.11
2019-03-06T13:02:00.407Z,99895.19
2019-03-06T13:04:30.110Z,99900.33
2019-03-06T13:06:59.721Z,99895.55
2019-03-06T13:09:29.281Z,99900.22
2019-03-06T13:11:59.000Z,99894.30
2019-03-06T13:14:30.540Z,99897.50
2019-03-06T13:16:59.881Z,99896.37
2019-03-06T13:19:29.594Z,99899.88
2019-03-06T13:21:59.248Z,99899.88
2019-03-06T13:24:28.886Z,99886.51
2019-03-06T13:26:58.699Z,99910.70
2019-03-06T13:29:28.332Z,99910.66
2019-03-06T13:31:57.991Z,99911.19
2019-03-06T13:34:30.681Z,99907.03
2019-03-06T13:37:00.306Z,99899.39
2019-03-06T13:39:30.013Z,99950.94
2019-03-06T13:41:59.576Z,99959.33
2019-03-06T13:44:29.181Z,99947.99
2019-03-06T13:46:58.836Z,99965.44
2019-03-06T13:49:28.392Z,99969.02
2019-03-06T13:51:58.068Z,99976.33
2019-03-06T13:54:27.801Z,99987.61
2019-03-06T13:56:57.355Z,99992.25
2019-03-06T13:59:26.955Z,99995.70
2019-03-06T14:01:56.614Z,100000.79
2019-03-06T14:04:26.160Z,100002.32
2019-03-06T14:06:55.800Z,100012.24
2019-03-06T14:09:25.647Z,100008.06
2019-03-06T14:11:55.246Z,100001.20
2019-03-06T14:14:24.823Z,99997.03
2019-03-06T14:16:56.110Z,100004.81
2019-03-06T14:19:27.502Z,100010.94
2019-03-06T14:21:57.451Z,100004.34
2019-03-06T14:24:27.143Z,100007.78
2019-03-06T14:26:56.692Z,100009.17
2019-03-06T14:29:26.277Z,100009.50
2019-03-06T14:31:55.828Z,100006.61
2019-03-06T14:34:25.375Z,100016.96
2019-03-06T14:36:55.145Z,100011.42
2019-03-06T14:39:31.699Z,100015.06
2019-03-06T14:42:01.620Z,100011.84
2019-03-06T14:44:31.268Z,100015.64
2019-03-06T14:47:01.120Z,100011.98
2019-03-06T14:49:30.685Z,100009.34
2019-03-06T14:52:06.945Z,100010.57
2019-03-06T14:54:31.548Z,100012.95
2019-03-06T14:57:01.160Z,100017.34
2019-03-06T14:59:30.793Z,100018.03
2019-03-06T15:02:00.481Z,100011.02
2019-03-06T15:04:30.327Z,100011.34
2019-03-06T15:07:00.003Z,100011.77
2019-03-06T15:09:29.925Z,100017.04
2019-03-06T15:11:59.474Z,100021.89
2019-03-06T15:14:35.805Z,100026.66
2019-03-06T15:17:00.471Z,100025.41
2019-03-06T15:19:30.044Z,100032.22
2019-03-06T15:21:59.613Z,100030.09
2019-03-06T15:24:29.299Z,100036.00
2019-03-06T15:26:58.977Z,100033.16
2019-03-06T15:29:28.736Z,100046.59
2019-03-06T15:31:58.561Z,100042.53
2019-03-06T15:34:28.168Z,100048.11
2019-03-06T15:36:57.747Z,100049.36
2019-03-06T15:39:44.497Z,100054.70
2019-03-06T15:42:12.977Z,100061.53
2019-03-06T15:44:42.652Z,100074.13
2019-03-06T15:47:12.295Z,100072.30
2019-03-06T15:49:41.924Z,100078.13
2019-03-06T15:52:11.994Z,100080.42
2019-03-06T15:54:41.552Z,100083.60
2019-03-06T15:57:11.210Z,100087.55
2019-03-06T15:59:40.741Z,100094.27
2019-03-06T16:02:10.284Z,100101.68
2019-03-06T16:04:39.847Z,100101.50
2019-03-06T16:07:09.457Z,100100.81
2019-03-06T16:09:39.342Z,100111.16
2019-03-06T16:12:08.895Z,100105.30
2019-03-06T16:14:38.692Z,100107.70
2019-03-06T16:17:08.242Z,100113.81
2019-03-06T16:19:37.968Z,100122.93
2019-03-06T16:22:07.545Z,100128.39
2019-03-06T16:24:37.732Z,100130.78
2019-03-06T16:27:07.363Z,100138.92
2019-03-06T16:29:36.993Z,100144.25
2019-03-06T16:32:06.637Z,100151.10
2019-03-06T16:34:36.188Z,100154.92
2019-03-06T16:37:06.027Z,100167.55
2019-03-06T16:39:35.654Z,100161.91
2019-03-06T16:42:05.271Z,100165.38
2019-03-06T16:44:34.822Z,100171.93
2019-03-06T16:47:06.898Z,100174.32
2019-03-06T16:49:35.662Z,100176.76
2019-03-06T16:52:05.328Z,100181.53
2019-03-06T16:54:35.002Z,100181.26
2019-03-06T16:57:04.541Z,100185.31
2019-03-06T16:59:34.302Z,100191.50
2019-03-06T17:02:03.925Z,100193.75
2019-03-06T17:04:33.791Z,100197.52
2019-03-06T17:07:03.315Z,100204.93
2019-03-06T17:09:33.028Z,100209.70
2019-03-06T17:12:02.574Z,100207.70
2019-03-06T17:14:32.250Z,100219.20
2019-03-06T17:17:01.796Z,100219.25
2019-03-06T17:19:31.534Z,100221.92
2019-03-06T17:22:01.158Z,100227.02
2019-03-06T17:24:30.717Z,100238.17
2019-03-06T17:27:00.354Z,100239.69
2019-03-06T17:29:29.899Z,100245.24
2019-03-06T17:31:59.698Z,100253.32
2019-03-06T17:34:29.246Z,100247.94
2019-03-06T17:36:58.808Z,100244.95
2019-03-06T17:39:28.489Z,100240.91
2019-03-06T17:41:58.147Z,100240.74
2019-03-06T17:44:27.667Z,100248.86
2019-03-06T17:46:57.340Z,100248.69
2019-03-06T17:49:26.957Z,100250.06
2019-03-06T17:51:56.534Z,100246.36
2019-03-06T17:54:26.207Z,100256.48
2019-03-06T17:56:55.863Z,100257.19
2019-03-06T17:59:25.520Z,100264.61
2019-03-06T18:01:55.161Z,100265.27
2019-03-06T18:04:25.799Z,100279.08
2019-03-06T18:06:55.465Z,100277.25
2019-03-06T18:09:25.070Z,100277.56
2019-03-06T18:11:54.725Z,100273.37
2019-03-06T18:14:24.283Z,100280.09
2019-03-06T18:16:53.818Z,100284.81
2019-03-06T18:19:23.606Z,100275.41
2019-03-06T18:21:53.345Z,100289.00
2019-03-06T18:24:23.005Z,100284.14
2019-03-06T18:26:52.576Z,100291.53
2019-03-06T18:29:22.263Z,100296.91
2019-03-06T18:31:51.792Z,100295.23
2019-03-06T18:34:21.348Z,100302.61
2019-03-06T18:36:50.903Z,100307.66
2019-03-06T18:39:21.196Z,100301.58
2019-03-06T18:41:50.784Z,100302.59
2019-03-06T18:44:20.421Z,100297.86
2019-03-06T18:46:50.169Z,100301.87
2019-03-06T18:49:19.692Z,100307.20
2019-03-06T18:51:49.483Z,100312.94
2019-03-06T18:54:19.212Z,100312.25
2019-03-06T18:56:48.996Z,100319.48
2019-03-06T18:59:18.557Z,100315.61
2019-03-06T19:01:48.204Z,100310.19
2019-03-06T19:04:17.816Z,100312.83
2019-03-06T19:06:47.371Z,100308.80
2019-03-06T19:09:16.919Z,100307.77
2019-03-06T19:11:46.635Z,100310.30
2019-03-06T19:14:16.280Z,100311.79
2019-03-06T19:16:46.050Z,100315.78
2019-03-06T19:19:15.693Z,100315.41
2019-03-06T19:21:45.378Z,100319.55
2019-03-06T19:24:15.078Z,100325.37
2019-03-06T19:26:44.704Z,100316.59
2019-03-06T19:29:14.386Z,100323.91
2019-03-06T19:31:44.023Z,100325.54
2019-03-06T19:34:13.715Z,100322.77
2019-03-06T19:36:43.267Z,100331.70
2019-03-06T19:39:12.975Z,100342.55
2019-03-06T19:41:42.659Z,100339.63
2019-03-06T19:44:12.249Z,100342.72
2019-03-06T19:46:41.891Z,100343.09
2019-03-06T19:49:11.666Z,100344.00
2019-03-06T19:51:51.229Z,100362.64
2019-03-06T19:54:14.168Z,100362.00
2019-03-06T19:56:43.803Z,100361.92
2019-03-06T19:59:13.378Z,100362.27
2019-03-06T20:01:43.091Z,100370.25
2019-03-06T20:04:12.806Z,100366.14
2019-03-06T20:06:42.360Z,100375.77
2019-03-06T20:09:37.517Z,100385.34
2019-03-06T20:12:08.569Z,100403.52
2019-03-06T20:14:38.378Z,100404.08
2019-03-06T20:17:07.926Z,100407.28
2019-03-06T20:19:37.575Z,100408.47
2019-03-06T20:22:07.138Z,100403.77
2019-03-06T20:24:36.754Z,100403.36
2019-03-06T20:27:06.413Z,100401.14
2019-03-06T20:29:36.138Z,100396.63
2019-03-06T20:32:05.727Z,100400.86
2019-03-06T20:34:35.447Z,100406.61
2019-03-06T20:37:05.032Z,100400.41
2019-03-06T20:39:34.799Z,100407.72
2019-03-06T20:42:04.504Z,100399.07
2019-03-06T20:44:34.315Z,100397.03
2019-03-06T20:47:04.076Z,100396.18
2019-03-06T20:49:33.689Z,100398.73
2019-03-06T20:52:03.402Z,100398.95
2019-03-06T20:54:32.959Z,100400.44
2019-03-06T20:57:02.495Z,100409.30
2019-03-06T20:59:32.016Z,100416.13
2019-03-06T21:02:01.756Z,100410.72
2019-03-06T21:04:31.297Z,100414.24
2019-03-06T21:07:00.821Z,100419.64
2019-03-06T21:09:30.559Z,100415.22
2019-03-06T21:12:00.133Z,100418.44
2019-03-06T21:14:29.809Z,100424.27
2019-03-06T21:16:59.325Z,100424.57
2019-03-06T21:19:28.883Z,100434.64
2019-03-06T21:21:58.431Z,100433.92
2019-03-06T21:24:28.159Z,100438.70
2019-03-06T21:26:57.666Z,100439.05
2019-03-06T21:29:27.244Z,100446.00
2019-03-06T21:31:56.773Z,100445.59
2019-03-06T21:34:26.316Z,100441.49
2019-03-06T21:36:55.897Z,100449.02
2019-03-06T21:39:26.365Z,100449.36
2019-03-06T21:41:55.901Z,100448.36
2019-03-06T21:44:25.609Z,100449.83
2019-03-06T21:46:55.145Z,100454.98
2019-03-06T21:49:24.720Z,100458.41
2019-03-06T21:51:54.385Z,100450.30
2019-03-06T21:54:24.214Z,100451.21
2019-03-06T21:56:53.758Z,100454.34
2019-03-06T21:59:23.315Z,100446.59
2019-03-06T22:01:52.867Z,100447.77
2019-03-06T22:04:22.402Z,100452.80
2019-03-06T22:06:52.038Z,100456.58
2019-03-06T22:09:21.587Z,100453.73
2019-03-06T22:11:51.184Z,100450.25
2019-03-06T22:14:21.288Z,100458.77
2019-03-06T22:16:50.904Z,100459.31
2019-03-06T22:19:20.435Z,100450.59
2019-03-06T22:21:50.441Z,100456.64
2019-03-06T22:24:20.072Z,100452.09
2019-03-06T22:26:49.760Z,100445.91
2019-03-06T22:29:19.337Z,100448.70
2019-03-06T22:31:48.950Z,100457.07
2019-03-06T22:34:18.639Z,100453.55
2019-03-06T22:36:48.574Z,100446.58
2019-03-06T22:39:18.396Z,100439.00
2019-03-06T22:41:48.020Z,100445.80
2019-03-06T22:44:17.557Z,100446.05
2019-03-06T22:46:47.144Z,100435.91
2019-03-06T22:49:16.822Z,100441.38
2019-03-06T22:51:46.568Z,100444.89
2019-03-06T22:54:16.254Z,100443.87
2019-03-06T22:56:45.871Z,100445.99
2019-03-06T22:59:15.633Z,100435.61
2019-03-06T23:01:45.314Z,100442.89
2019-03-06T23:04:15.091Z,100441.45
2019-03-06T23:06:44.855Z,100429.75
2019-03-06T23:09:14.434Z,100428.77
2019-03-06T23:11:43.962Z,100431.03
2019-03-06T23:14:13.501Z,100437.57
2019-03-06T23:16:43.210Z,100438.66
2019-03-06T23:19:12.806Z,100439.80
2019-03-06T23:21:42.555Z,100448.30
2019-03-06T23:24:12.100Z,100444.23
2019-03-06T23:26:43.103Z,100441.17
2019-03-06T23:29:13.034Z,100445.22
2019-03-06T23:31:42.847Z,100453.20
2019-03-06T23:34:12.385Z,100452.23
2019-03-06T23:36:42.013Z,100448.84
2019-03-06T23:39:14.722Z,100452.73
2019-03-06T23:41:44.327Z,100455.75
2019-03-06T23:44:15.746Z,100455.63
2019-03-06T23:46:45.300Z,100452.73
2019-03-06T23:49:14.899Z,100455.39
2019-03-06T23:51:51.663Z,100460.00
2019-03-06T23:54:21.484Z,100452.52
2019-03-06T23:56:51.189Z,100450.34
2019-03-06T23:59:20.830Z,100449.09
